createdAt,value
2017-07-03T07:57:48.398Z,16.47
2017-07-03T07:58:58.367Z,16.61
2017-07-03T08:00:08.342Z,16.65
2017-07-03T08:01:18.613Z,16.68
2017-07-03T08:02:28.582Z,16.72
2017-07-03T08:03:39.120Z,16.69
2017-07-03T08:04:49.110Z,16.72
2017-07-03T08:05:59.397Z,16.73
2017-07-03T08:07:09.054Z,16.69
2017-07-03T08:08:19.317Z,16.76
2017-07-03T08:09:29.584Z,16.89
2017-07-03T08:10:39.619Z,16.86
2017-07-03T08:11:49.879Z,16.84
2017-07-03T08:12:59.530Z,16.66
2017-07-03T08:14:09.799Z,16.66
2017-07-03T08:15:20.377Z,16.69
2017-07-03T08:16:30.661Z,16.86
2017-07-03T08:17:40.938Z,17.04
2017-07-03T08:18:51.209Z,17.02
2017-07-03T08:20:01.488Z,17.1
2017-07-03T08:21:12.018Z,17.17
2017-07-03T08:22:22.039Z,17.12
2017-07-03T08:23:32.020Z,16.98
2017-07-03T08:24:41.975Z,16.86
2017-07-03T08:25:52.237Z,16.84
2017-07-03T08:27:02.815Z,16.95
2017-07-03T08:28:12.798Z,16.99
2017-07-03T08:29:23.084Z,16.89
2017-07-03T08:30:33.072Z,16.94
2017-07-03T08:31:43.336Z,17.09
2017-07-03T08:32:53.863Z,17.16
2017-07-03T08:34:04.145Z,17.24
2017-07-03T08:35:14.437Z,17.28
2017-07-03T08:36:24.123Z,17.27
2017-07-03T08:37:33.772Z,17.27
2017-07-03T08:38:44.052Z,17.39
2017-07-03T08:39:54.334Z,17.32
2017-07-03T08:41:04.624Z,17.24
2017-07-03T08:42:14.918Z,17.24
2017-07-03T08:43:24.878Z,17.39
2017-07-03T08:44:35.460Z,17.47
2017-07-03T08:45:45.113Z,17.49
2017-07-03T08:46:55.365Z,17.68
2017-07-03T08:48:05.642Z,17.84
2017-07-03T08:49:15.956Z,17.91
2017-07-03T08:50:26.155Z,17.97
2017-07-03T08:51:36.433Z,18.03
2017-07-03T08:52:46.408Z,18.16
2017-07-03T08:53:56.688Z,18.34
2017-07-03T08:55:06.980Z,18.33
2017-07-03T08:56:17.237Z,18.34
2017-07-03T08:57:27.503Z,18.53
2017-07-03T08:58:37.770Z,18.73
2017-07-03T08:59:48.050Z,18.7
2017-07-03T09:00:58.019Z,18.79
2017-07-03T09:02:08.598Z,18.86
2017-07-03T09:03:18.873Z,18.88
2017-07-03T09:04:28.847Z,18.88
2017-07-03T09:05:39.114Z,18.76
2017-07-03T09:06:49.384Z,18.91
2017-07-03T09:07:59.957Z,19.07
2017-07-03T09:09:10.231Z,19.19
2017-07-03T09:10:20.193Z,19.2
2017-07-03T09:11:30.156Z,19.32
2017-07-03T09:12:40.427Z,19.19
2017-07-03T09:13:51.011Z,19.11
2017-07-03T09:15:01.339Z,19.05
2017-07-03T09:16:11.622Z,19.05
2017-07-03T09:17:21.882Z,19.01
2017-07-03T09:18:31.771Z,19.04
2017-07-03T09:19:42.373Z,19.08
2017-07-03T09:20:52.347Z,19.26
2017-07-03T09:22:02.621Z,19.35
2017-07-03T09:23:12.886Z,19.32
2017-07-03T09:24:22.532Z,19.22
2017-07-03T09:25:33.075Z,19.22
2017-07-03T09:26:43.350Z,19.08
2017-07-03T09:27:53.627Z,19.09
2017-07-03T09:29:03.590Z,19.17
2017-07-03T09:30:13.881Z,18.97
2017-07-03T09:31:24.172Z,19.04
2017-07-03T09:32:34.444Z,18.92
2017-07-03T09:33:44.733Z,18.97
2017-07-03T09:34:54.703Z,19.17
2017-07-03T09:36:04.974Z,19.26
2017-07-03T09:37:15.611Z,19.34
2017-07-03T09:38:25.904Z,19.56
2017-07-03T09:39:36.201Z,19.59
2017-07-03T09:40:46.507Z,19.48
2017-07-03T09:41:56.466Z,19.59
2017-07-03T09:43:07.037Z,19.63
2017-07-03T09:44:17.330Z,19.56
2017-07-03T09:45:27.622Z,19.77
2017-07-03T09:46:37.639Z,19.84
2017-07-03T09:47:47.986Z,19.96
2017-07-03T09:48:58.594Z,19.84
2017-07-03T09:50:08.909Z,19.87
2017-07-03T09:51:19.209Z,19.96
2017-07-03T09:52:29.489Z,20.11
2017-07-03T09:53:39.787Z,20.14
2017-07-03T09:54:50.369Z,20.32
2017-07-03T09:56:00.640Z,20.73
2017-07-03T09:57:10.916Z,20.67
2017-07-03T09:58:21.204Z,20.64
2017-07-03T09:59:31.476Z,20.48
2017-07-03T10:00:42.000Z,20.3
2017-07-03T10:01:52.276Z,20.46
2017-07-03T10:03:02.559Z,20.5
2017-07-03T10:04:12.867Z,20.46
2017-07-03T10:05:23.148Z,20.29
2017-07-03T10:06:33.441Z,20.34
2017-07-03T10:07:43.409Z,20.34
2017-07-03T10:08:53.712Z,20.21
2017-07-03T10:10:04.006Z,20.18
2017-07-03T10:11:14.292Z,20.4
2017-07-03T10:12:24.290Z,20.49
2017-07-03T10:13:34.571Z,20.3
2017-07-03T10:14:44.862Z,20.26
2017-07-03T10:15:54.525Z,20.17
2017-07-03T10:17:05.051Z,20.14
2017-07-03T10:18:15.393Z,20.18
2017-07-03T10:19:25.683Z,20.21
2017-07-03T10:20:35.663Z,20.29
2017-07-03T10:21:45.933Z,20.64
2017-07-03T10:22:56.522Z,21.03
2017-07-03T10:24:06.801Z,21.3
2017-07-03T10:25:17.069Z,21.48
2017-07-03T10:26:27.357Z,21.6
2017-07-03T10:27:37.317Z,21.44
2017-07-03T10:28:47.300Z,21.41
2017-07-03T10:29:57.276Z,21.35
2017-07-03T10:31:07.239Z,21.26
2017-07-03T10:32:17.537Z,21.22
2017-07-03T10:33:27.832Z,21.37
2017-07-03T10:34:38.412Z,21.33
2017-07-03T10:35:48.724Z,21.43
2017-07-03T10:36:58.993Z,21.54
2017-07-03T10:38:09.273Z,21.51
2017-07-03T10:39:19.567Z,21.48
2017-07-03T10:40:30.182Z,21.3
2017-07-03T10:41:40.460Z,21.14
2017-07-03T10:42:50.744Z,20.95
2017-07-03T10:44:01.045Z,21.22
2017-07-03T10:45:11.015Z,21.07
2017-07-03T10:46:21.616Z,21.11
2017-07-03T10:47:31.581Z,21.32
2017-07-03T10:48:41.890Z,21.4
2017-07-03T10:49:51.882Z,21.5
2017-07-03T10:51:02.193Z,21.44
2017-07-03T10:52:12.826Z,21.53
2017-07-03T10:53:23.121Z,21.58
2017-07-03T10:54:33.413Z,21.94
2017-07-03T10:55:43.393Z,22.25
2017-07-03T10:56:53.682Z,22.36
2017-07-03T10:58:04.282Z,22.03
2017-07-03T10:59:14.600Z,22.22
2017-07-03T11:00:24.903Z,22.4
2017-07-03T11:01:35.186Z,22.7
2017-07-03T11:02:45.467Z,22.86
2017-07-03T11:03:55.991Z,22.88
2017-07-03T11:05:06.276Z,22.8
2017-07-03T11:06:16.235Z,22.38
2017-07-03T11:07:26.552Z,22.15
2017-07-03T11:08:36.531Z,22.12
2017-07-03T11:09:47.138Z,22.03
2017-07-03T11:10:57.448Z,21.45
2017-07-03T11:12:07.440Z,21.58
2017-07-03T11:13:17.727Z,21.62
2017-07-03T11:14:28.021Z,21.11
2017-07-03T11:15:37.934Z,21.19
2017-07-03T11:16:48.231Z,21.77
2017-07-03T11:17:58.522Z,22.1
2017-07-03T11:19:08.860Z,22.34
2017-07-03T11:20:18.838Z,22.73
2017-07-03T11:21:29.371Z,22.77
2017-07-03T11:22:39.025Z,23.14
2017-07-03T11:23:49.362Z,23.02
2017-07-03T11:24:59.641Z,22.95
2017-07-03T11:26:09.628Z,22.88
2017-07-03T11:27:19.854Z,22.47
2017-07-03T11:28:30.143Z,22.53
2017-07-03T11:29:40.440Z,22.61
2017-07-03T11:30:50.722Z,22.67
2017-07-03T11:32:01.013Z,22.8
2017-07-03T11:33:11.621Z,22.86
2017-07-03T11:34:21.907Z,23.07
2017-07-03T11:35:31.894Z,22.99
2017-07-03T11:36:41.877Z,22.53
2017-07-03T11:37:52.149Z,22.55
2017-07-03T11:39:02.414Z,22.81
2017-07-03T11:40:12.386Z,22.84
2017-07-03T11:41:22.734Z,22.65
2017-07-03T11:42:33.019Z,22.53
2017-07-03T11:43:42.686Z,22.51
2017-07-03T11:44:53.278Z,22.74
2017-07-03T11:46:03.562Z,22.65
2017-07-03T11:47:13.871Z,22.41
2017-07-03T11:48:24.152Z,22.38
2017-07-03T11:49:34.433Z,22.46
2017-07-03T11:50:44.701Z,22.22
2017-07-03T11:51:54.979Z,22.1
2017-07-03T11:53:05.248Z,21.85
2017-07-03T11:54:15.592Z,21.92
2017-07-03T11:55:25.559Z,21.84
2017-07-03T11:56:36.131Z,22
2017-07-03T11:57:46.405Z,22.08
2017-07-03T11:58:56.359Z,21.91
2017-07-03T12:00:06.324Z,21.8
2017-07-03T12:01:16.593Z,21.6
2017-07-03T12:02:27.158Z,21.48
2017-07-03T12:03:37.422Z,21.6
2017-07-03T12:04:47.719Z,21.88
2017-07-03T12:05:58.003Z,22.1
2017-07-03T12:07:08.290Z,22.28
2017-07-03T12:08:18.544Z,22.16
2017-07-03T12:09:28.829Z,22.21
2017-07-03T12:10:39.104Z,22.04
2017-07-03T12:11:49.383Z,21.84
2017-07-03T12:12:59.666Z,21.94
2017-07-03T12:14:10.223Z,22.03
2017-07-03T12:15:20.509Z,22.36
2017-07-03T12:16:30.791Z,22.68
2017-07-03T12:17:41.074Z,22.73
2017-07-03T12:18:51.056Z,22.88
2017-07-03T12:20:01.303Z,22.77
2017-07-03T12:21:11.599Z,23.01
2017-07-03T12:22:21.555Z,23.36
2017-07-03T12:23:31.832Z,23.69
2017-07-03T12:24:42.122Z,24
2017-07-03T12:25:52.877Z,24.01
2017-07-03T12:27:03.169Z,23.62
2017-07-03T12:28:13.151Z,23.49
2017-07-03T12:29:23.432Z,23.2
2017-07-03T12:30:33.708Z,23.04
2017-07-03T12:31:44.279Z,23.29
2017-07-03T12:32:54.265Z,23.32
2017-07-03T12:34:04.535Z,23.28
2017-07-03T12:35:14.835Z,23.49
2017-07-03T12:36:25.130Z,23.71
2017-07-03T12:37:35.669Z,23.28
2017-07-03T12:38:45.951Z,22.86
2017-07-03T12:39:56.215Z,22.53
2017-07-03T12:41:06.548Z,22.55
2017-07-03T12:42:16.872Z,22.41
2017-07-03T12:43:27.451Z,22.19
2017-07-03T12:44:37.734Z,22.01
2017-07-03T12:45:47.701Z,22.16
2017-07-03T12:46:57.977Z,22.52
2017-07-03T12:48:08.251Z,22.74
2017-07-03T12:49:18.460Z,22.8
2017-07-03T12:50:28.452Z,22.74
2017-07-03T12:51:38.733Z,22.88
2017-07-03T12:52:48.990Z,23.01
2017-07-03T12:53:59.285Z,23.02
2017-07-03T12:55:09.809Z,23.28
2017-07-03T12:56:20.089Z,23.63
2017-07-03T12:57:30.359Z,23.62
2017-07-03T12:58:40.010Z,23.04
2017-07-03T12:59:50.287Z,22.86
2017-07-03T13:01:00.922Z,22.63
2017-07-03T13:02:11.216Z,22.55
2017-07-03T13:03:21.511Z,22.76
2017-07-03T13:04:31.500Z,22.89
2017-07-03T13:05:41.484Z,22.61
2017-07-03T13:06:52.036Z,22.49
2017-07-03T13:08:01.697Z,22.55
2017-07-03T13:09:11.998Z,22.52
2017-07-03T13:10:21.974Z,22.56
2017-07-03T13:11:32.254Z,22.7
2017-07-03T13:12:42.784Z,22.77
2017-07-03T13:13:53.063Z,22.95
2017-07-03T13:15:03.314Z,22.86
2017-07-03T13:16:13.268Z,22.68
2017-07-03T13:17:23.550Z,22.53
2017-07-03T13:18:33.845Z,22.44
2017-07-03T13:19:43.820Z,22.34
2017-07-03T13:20:53.791Z,22.43
2017-07-03T13:22:03.775Z,22.62
2017-07-03T13:23:14.048Z,22.77
2017-07-03T13:24:24.576Z,23.07
2017-07-03T13:25:34.538Z,23.48
2017-07-03T13:26:44.496Z,23.74
2017-07-03T13:27:54.795Z,23.45
2017-07-03T13:29:05.075Z,23.01
2017-07-03T13:30:15.619Z,23.02
2017-07-03T13:31:25.912Z,23.45
2017-07-03T13:32:36.203Z,23.69
2017-07-03T13:33:45.854Z,23.81
2017-07-03T13:34:56.148Z,23.76
2017-07-03T13:36:06.675Z,24.16
2017-07-03T13:37:16.952Z,24.48
2017-07-03T13:38:27.215Z,24.59
2017-07-03T13:39:36.871Z,24.48
2017-07-03T13:40:47.162Z,24.19
2017-07-03T13:41:57.132Z,24.16
2017-07-03T13:43:07.413Z,24.18
2017-07-03T13:44:17.368Z,24.26
2017-07-03T13:45:27.668Z,24.44
2017-07-03T13:46:37.947Z,24.55
2017-07-03T13:47:48.152Z,24.81
2017-07-03T13:48:58.449Z,25.04
2017-07-03T13:50:08.426Z,25.25
2017-07-03T13:51:18.394Z,25.44
2017-07-03T13:52:28.366Z,24.84
2017-07-03T13:53:38.899Z,24.19
2017-07-03T13:54:48.879Z,23.82
2017-07-03T13:55:58.841Z,23.89
2017-07-03T13:57:09.104Z,24.03
2017-07-03T13:58:19.376Z,24.19
2017-07-03T13:59:29.911Z,24.47
2017-07-03T14:00:40.273Z,24.66
2017-07-03T14:01:50.550Z,24.66
2017-07-03T14:03:00.839Z,24.69
2017-07-03T14:04:10.806Z,24.18
2017-07-03T14:05:21.378Z,24.24
2017-07-03T14:06:31.657Z,24.29
2017-07-03T14:07:41.936Z,24.19
2017-07-03T14:08:52.214Z,24.19
2017-07-03T14:10:02.204Z,24.31
2017-07-03T14:11:12.160Z,24.62
2017-07-03T14:12:22.449Z,24.78
2017-07-03T14:13:32.732Z,25
2017-07-03T14:14:42.722Z,25.46
2017-07-03T14:15:53.003Z,25.44
2017-07-03T14:17:03.599Z,25.31
2017-07-03T14:18:13.879Z,25.36
2017-07-03T14:19:23.851Z,25.41
2017-07-03T14:20:33.831Z,25.44
2017-07-03T14:21:44.106Z,25.73
2017-07-03T14:22:54.635Z,25.76
2017-07-03T14:24:04.613Z,25.96
2017-07-03T14:25:14.895Z,25.85
2017-07-03T14:26:25.168Z,25.96
2017-07-03T14:27:35.148Z,25.99
2017-07-03T14:28:45.722Z,25.44
2017-07-03T14:29:56.019Z,25.22
2017-07-03T14:31:05.989Z,24.97
2017-07-03T14:32:15.944Z,24.88
2017-07-03T14:33:26.210Z,24.66
2017-07-03T14:34:36.730Z,24.62
2017-07-03T14:35:47.007Z,24.34
2017-07-03T14:36:56.969Z,23.84
2017-07-03T14:38:06.936Z,24.03
2017-07-03T14:39:16.893Z,24.07
2017-07-03T14:40:27.452Z,24.19
2017-07-03T14:41:37.729Z,24.01
2017-07-03T14:42:47.709Z,24.06
2017-07-03T14:43:57.979Z,24.01
2017-07-03T14:45:08.263Z,24.16
2017-07-03T14:46:18.517Z,24.25
2017-07-03T14:47:28.781Z,24.31
2017-07-03T14:48:39.079Z,24.36
2017-07-03T14:49:49.343Z,24.5
2017-07-03T14:50:59.310Z,24.82
2017-07-03T14:52:09.580Z,24.97
2017-07-03T14:53:19.838Z,25.11
2017-07-03T14:54:29.493Z,25.14
2017-07-03T14:55:39.141Z,25.06
2017-07-03T14:56:49.690Z,24.32
2017-07-03T14:58:00.295Z,24.24
2017-07-03T14:59:10.269Z,24.4
2017-07-03T15:00:20.222Z,24.47
2017-07-03T15:01:30.507Z,24.71
2017-07-03T15:02:40.790Z,24.56
2017-07-03T15:03:51.327Z,24.31
2017-07-03T15:05:01.625Z,24.41
2017-07-03T15:06:11.902Z,24.61
2017-07-03T15:07:21.870Z,24.48
2017-07-03T15:08:32.141Z,24.69
2017-07-03T15:09:42.696Z,24.71
2017-07-03T15:10:53.183Z,24.51
2017-07-03T15:12:03.127Z,24.38
2017-07-03T15:13:13.398Z,24.18
2017-07-03T15:14:23.702Z,23.82
2017-07-03T15:15:34.218Z,23.52
2017-07-03T15:16:44.513Z,23.44
2017-07-03T15:17:54.803Z,23.51
2017-07-03T15:19:05.081Z,23.42
2017-07-03T15:20:15.043Z,23.34
2017-07-03T15:21:25.260Z,23.32
2017-07-03T15:22:35.224Z,23.49
2017-07-03T15:23:45.495Z,23.76
2017-07-03T15:24:55.759Z,23.92
2017-07-03T15:26:05.702Z,24.24
2017-07-03T15:27:16.281Z,24.32
2017-07-03T15:28:26.564Z,24.24
2017-07-03T15:29:36.845Z,24.24
2017-07-03T15:30:47.130Z,24.13
2017-07-03T15:31:57.393Z,24.14
2017-07-03T15:33:07.952Z,24.01
2017-07-03T15:34:18.230Z,23.67
2017-07-03T15:35:28.509Z,23.89
2017-07-03T15:36:38.154Z,24.16
2017-07-03T15:37:48.456Z,24.32
2017-07-03T15:38:58.342Z,24.47
2017-07-03T15:40:07.994Z,24.43
2017-07-03T15:41:17.962Z,24.44
2017-07-03T15:42:28.236Z,24.29
2017-07-03T15:43:38.500Z,24.16
2017-07-03T15:44:48.708Z,24.03
2017-07-03T15:45:58.990Z,23.94
2017-07-03T15:47:09.267Z,24
2017-07-03T15:48:19.327Z,24.24
2017-07-03T15:49:29.609Z,24.36
2017-07-03T15:50:40.192Z,24.32
2017-07-03T15:51:50.175Z,24.16
2017-07-03T15:53:00.446Z,24.28
2017-07-03T15:54:10.734Z,24.22
2017-07-03T15:55:21.039Z,24.37
2017-07-03T15:56:31.568Z,24.44
2017-07-03T15:57:41.845Z,24.53
2017-07-03T15:58:52.121Z,24.5
2017-07-03T16:00:02.075Z,24.48
2017-07-03T16:01:11.714Z,24.51
2017-07-03T16:02:22.292Z,24.47
2017-07-03T16:03:32.268Z,24.61
2017-07-03T16:04:42.233Z,24.51
2017-07-03T16:05:52.524Z,24.5
2017-07-03T16:07:02.812Z,24.56
2017-07-03T16:08:13.382Z,24.5
2017-07-03T16:09:23.639Z,24.44
2017-07-03T16:10:33.585Z,24.61
2017-07-03T16:11:43.226Z,24.44
2017-07-03T16:12:52.880Z,24.34
2017-07-03T16:14:03.453Z,24.24
2017-07-03T16:15:13.745Z,24.24
2017-07-03T16:16:24.043Z,24.11
2017-07-03T16:17:34.304Z,24.26
2017-07-03T16:18:44.569Z,24.28
2017-07-03T16:19:54.822Z,24.44
2017-07-03T16:21:04.778Z,24.68
2017-07-03T16:22:14.747Z,24.74
2017-07-03T16:23:24.408Z,24.69
2017-07-03T16:24:34.619Z,24.81
2017-07-03T16:25:45.374Z,25.04
2017-07-03T16:26:55.652Z,25.26
2017-07-03T16:28:05.939Z,25.24
2017-07-03T16:29:15.902Z,25.34
2017-07-03T16:30:26.198Z,25.61
2017-07-03T16:31:36.724Z,25.61
2017-07-03T16:32:47.011Z,25.51
2017-07-03T16:33:56.976Z,25.31
2017-07-03T16:35:06.922Z,25.03
2017-07-03T16:36:17.210Z,24.94
2017-07-03T16:37:27.814Z,24.59
2017-07-03T16:38:38.072Z,24.43
2017-07-03T16:39:47.714Z,24.37
2017-07-03T16:40:57.990Z,24.22
2017-07-03T16:42:08.261Z,24.07
2017-07-03T16:43:18.204Z,23.85
2017-07-03T16:44:28.172Z,23.58
2017-07-03T16:45:38.113Z,23.54
2017-07-03T16:46:48.386Z,23.48
2017-07-03T16:47:58.367Z,23.52
2017-07-03T16:49:08.944Z,23.69
2017-07-03T16:50:18.917Z,23.7
2017-07-03T16:51:29.246Z,23.76
2017-07-03T16:52:39.217Z,23.7
2017-07-03T16:53:49.514Z,23.66
2017-07-03T16:54:59.108Z,23.62
2017-07-03T16:56:09.384Z,23.62
2017-07-03T16:57:19.667Z,23.81
2017-07-03T16:58:29.614Z,23.95
2017-07-03T16:59:39.911Z,23.88
2017-07-03T17:00:50.237Z,23.81
2017-07-03T17:02:00.506Z,23.73
2017-07-03T17:03:10.777Z,23.66
2017-07-03T17:04:20.741Z,23.44
2017-07-03T17:05:31.018Z,23.32
2017-07-03T17:06:41.528Z,23.37
2017-07-03T17:07:51.799Z,23.39
2017-07-03T17:09:02.075Z,23.48
2017-07-03T17:10:12.349Z,23.37
2017-07-03T17:11:22.624Z,23.47
2017-07-03T17:12:33.204Z,23.55
2017-07-03T17:13:43.479Z,23.47
2017-07-03T17:14:53.134Z,23.26
2017-07-03T17:16:03.405Z,23.13
2017-07-03T17:17:13.049Z,23.1
2017-07-03T17:18:23.631Z,23.02
2017-07-03T17:19:33.897Z,23.14
2017-07-03T17:20:44.163Z,23.21
2017-07-03T17:21:54.431Z,23.14
2017-07-03T17:23:04.076Z,23.14
2017-07-03T17:24:14.650Z,23.06
2017-07-03T17:25:24.609Z,23.04
2017-07-03T17:26:34.859Z,23.02
2017-07-03T17:27:44.811Z,23.08
2017-07-03T17:28:55.085Z,23.14
2017-07-03T17:30:05.357Z,23.21
2017-07-03T17:31:15.299Z,23.2
2017-07-03T17:32:25.307Z,23.11
2017-07-03T17:33:35.577Z,23.02
2017-07-03T17:34:45.859Z,22.99
2017-07-03T17:35:56.062Z,22.84
2017-07-03T17:37:06.000Z,22.88
2017-07-03T17:38:16.292Z,22.77
2017-07-03T17:39:25.637Z,22.65
2017-07-03T17:40:35.914Z,22.65
2017-07-03T17:41:46.444Z,22.61
2017-07-03T17:42:56.727Z,22.68
2017-07-03T17:44:07.001Z,22.62
2017-07-03T17:45:16.960Z,22.67
2017-07-03T17:46:26.906Z,22.8
2017-07-03T17:47:37.461Z,22.78
2017-07-03T17:48:47.730Z,22.63
2017-07-03T17:49:57.991Z,22.78
2017-07-03T17:51:08.516Z,22.67
2017-07-03T17:52:18.486Z,22.59
2017-07-03T17:53:28.758Z,22.7
2017-07-03T17:54:39.098Z,22.7
2017-07-03T17:55:49.058Z,22.61
2017-07-03T17:56:59.020Z,22.76
2017-07-03T17:58:08.714Z,22.71
2017-07-03T17:59:18.950Z,22.77
2017-07-03T18:00:28.903Z,22.76
2017-07-03T18:01:38.870Z,22.76
2017-07-03T18:02:49.143Z,22.78
2017-07-03T18:03:59.411Z,22.7
2017-07-03T18:05:09.613Z,22.65
2017-07-03T18:06:19.563Z,22.55
2017-07-03T18:07:29.842Z,22.52
2017-07-03T18:08:39.480Z,22.47
2017-07-03T18:09:49.773Z,22.4
2017-07-03T18:11:00.346Z,22.33
2017-07-03T18:12:10.621Z,22.34
2017-07-03T18:13:20.624Z,22.37
2017-07-03T18:14:30.916Z,22.22
2017-07-03T18:15:40.556Z,22.22
2017-07-03T18:16:50.830Z,22.14
2017-07-03T18:18:00.476Z,22.14
2017-07-03T18:19:10.137Z,22.08
2017-07-03T18:20:20.106Z,22.03
2017-07-03T18:21:30.392Z,22.07
2017-07-03T18:22:40.908Z,21.94
2017-07-03T18:23:50.890Z,21.91
2017-07-03T18:25:01.148Z,21.88
2017-07-03T18:26:11.443Z,21.88
2017-07-03T18:27:21.738Z,21.91
2017-07-03T18:28:32.360Z,21.84
2017-07-03T18:29:42.308Z,21.81
2017-07-03T18:30:52.567Z,21.83
2017-07-03T18:32:02.531Z,21.77
2017-07-03T18:33:12.485Z,21.77
2017-07-03T18:34:22.064Z,21.6
2017-07-03T18:35:31.708Z,21.66
2017-07-03T18:36:41.977Z,21.63
2017-07-03T18:37:51.943Z,21.54
2017-07-03T18:39:02.244Z,21.58
2017-07-03T18:40:12.827Z,21.54
2017-07-03T18:41:22.479Z,21.59
2017-07-03T18:42:32.424Z,21.58
2017-07-03T18:43:42.706Z,21.63
2017-07-03T18:44:52.981Z,21.5
2017-07-03T18:46:03.526Z,21.5
2017-07-03T18:47:12.871Z,21.54
2017-07-03T18:48:22.506Z,21.47
2017-07-03T18:49:32.158Z,21.47
2017-07-03T18:50:42.121Z,21.44
2017-07-03T18:51:52.714Z,21.47
2017-07-03T18:53:02.999Z,21.45
2017-07-03T18:54:12.962Z,21.44
2017-07-03T18:55:22.937Z,21.47
2017-07-03T18:56:32.905Z,21.4
2017-07-03T18:57:43.440Z,21.37
2017-07-03T18:58:53.398Z,21.43
2017-07-03T19:00:03.358Z,21.4
2017-07-03T19:01:12.991Z,21.41
2017-07-03T19:02:22.953Z,21.4
2017-07-03T19:03:33.178Z,21.44
2017-07-03T19:04:43.457Z,21.44
2017-07-03T19:05:53.416Z,21.35
2017-07-03T19:07:03.687Z,21.41
2017-07-03T19:08:13.954Z,21.37
2017-07-03T19:09:24.489Z,21.37
2017-07-03T19:10:34.762Z,21.3
2017-07-03T19:11:44.419Z,21.38
2017-07-03T19:12:54.364Z,21.29
2017-07-03T19:14:04.354Z,21.28
2017-07-03T19:15:14.884Z,21.32
2017-07-03T19:16:24.853Z,21.3
2017-07-03T19:17:34.812Z,21.25
2017-07-03T19:18:44.761Z,21.26
2017-07-03T19:19:55.050Z,21.29
2017-07-03T19:21:05.250Z,21.26
2017-07-03T19:22:15.189Z,21.25
2017-07-03T19:23:25.141Z,21.22
2017-07-03T19:24:35.428Z,21.13
2017-07-03T19:25:45.050Z,21.11
2017-07-03T19:26:55.307Z,21.11
2017-07-03T19:28:05.566Z,21.14
2017-07-03T19:29:15.856Z,21.2
2017-07-03T19:30:25.821Z,21.04
2017-07-03T19:31:35.765Z,21
2017-07-03T19:32:46.363Z,21.03
2017-07-03T19:33:56.630Z,21.07
2017-07-03T19:35:06.598Z,20.93
2017-07-03T19:36:16.538Z,20.96
2017-07-03T19:37:26.815Z,20.98
2017-07-03T19:38:37.399Z,20.92
2017-07-03T19:39:47.685Z,21.01
2017-07-03T19:40:57.324Z,20.92
2017-07-03T19:42:07.296Z,20.93
2017-07-03T19:43:17.572Z,20.88
2017-07-03T19:44:27.838Z,20.88
2017-07-03T19:45:37.790Z,20.82
2017-07-03T19:46:47.749Z,20.74
2017-07-03T19:47:57.376Z,20.75
2017-07-03T19:49:07.020Z,20.68
2017-07-03T19:50:17.296Z,20.67
2017-07-03T19:51:27.274Z,20.68
2017-07-03T19:52:37.219Z,20.67
2017-07-03T19:53:47.519Z,20.59
2017-07-03T19:54:57.806Z,20.5
2017-07-03T19:56:07.750Z,20.44
2017-07-03T19:57:18.020Z,20.4
2017-07-03T19:58:27.971Z,20.42
2017-07-03T19:59:38.236Z,20.44
2017-07-03T20:00:48.427Z,20.39
2017-07-03T20:01:58.713Z,20.34
2017-07-03T20:03:08.680Z,20.34
2017-07-03T20:04:18.650Z,20.3
2017-07-03T20:05:28.287Z,20.26
2017-07-03T20:06:38.579Z,20.21
2017-07-03T20:07:49.171Z,20.27
2017-07-03T20:08:59.186Z,20.22
2017-07-03T20:10:09.151Z,20.3
2017-07-03T20:11:19.105Z,20.19
2017-07-03T20:12:29.386Z,20.24
2017-07-03T20:13:39.962Z,20.21
2017-07-03T20:14:49.608Z,20.14
2017-07-03T20:15:59.272Z,20.12
2017-07-03T20:17:09.276Z,20.11
2017-07-03T20:18:19.234Z,20.12
2017-07-03T20:19:29.798Z,20.12
2017-07-03T20:20:40.075Z,20.1
2017-07-03T20:21:50.037Z,20.22
2017-07-03T20:23:00.306Z,20.14
2017-07-03T20:24:10.572Z,20.15
2017-07-03T20:25:20.792Z,20.12
2017-07-03T20:26:30.446Z,20.11
2017-07-03T20:27:40.719Z,20.1
2017-07-03T20:28:50.032Z,20.07
2017-07-03T20:30:00.305Z,20.11
2017-07-03T20:31:10.832Z,20.17
2017-07-03T20:32:20.784Z,20.14
2017-07-03T20:33:31.053Z,20.14
2017-07-03T20:34:40.996Z,20.08
2017-07-03T20:35:51.267Z,20.15
2017-07-03T20:37:01.793Z,20.11
2017-07-03T20:38:11.430Z,20.03
2017-07-03T20:39:21.369Z,20.1
2017-07-03T20:40:31.633Z,19.93
2017-07-03T20:41:41.896Z,19.9
2017-07-03T20:42:52.478Z,20.04
2017-07-03T20:44:02.738Z,19.97
2017-07-03T20:45:12.691Z,19.96
2017-07-03T20:46:22.958Z,19.96
2017-07-03T20:47:33.222Z,20.02
2017-07-03T20:48:43.491Z,19.99
2017-07-03T20:49:53.771Z,20.02
2017-07-03T20:51:03.410Z,19.89
2017-07-03T20:52:13.346Z,19.87
2017-07-03T20:53:23.631Z,19.89
2017-07-03T20:54:34.193Z,19.87
2017-07-03T20:55:44.461Z,19.99
2017-07-03T20:56:54.720Z,19.94
2017-07-03T20:58:04.679Z,19.97
2017-07-03T20:59:14.960Z,19.87
2017-07-03T21:00:25.515Z,19.89
2017-07-03T21:01:35.457Z,19.87
2017-07-03T21:02:44.774Z,19.84
2017-07-03T21:03:54.408Z,19.93
2017-07-03T21:05:04.374Z,19.82
2017-07-03T21:06:14.902Z,19.87
2017-07-03T21:07:24.541Z,19.85
2017-07-03T21:08:34.830Z,19.81
2017-07-03T21:09:44.796Z,19.78
2017-07-03T21:10:54.782Z,19.85
2017-07-03T21:12:05.309Z,19.84
2017-07-03T21:13:15.260Z,19.79
2017-07-03T21:14:25.200Z,19.79
2017-07-03T21:15:35.153Z,19.74
2017-07-03T21:16:45.417Z,19.75
2017-07-03T21:17:55.670Z,19.66
2017-07-03T21:19:05.944Z,19.71
2017-07-03T21:20:16.221Z,19.63
2017-07-03T21:21:26.181Z,19.67
2017-07-03T21:22:36.449Z,19.62
2017-07-03T21:23:47.009Z,19.66
2017-07-03T21:24:56.986Z,19.64
2017-07-03T21:26:06.949Z,19.59
2017-07-03T21:27:17.219Z,19.62
2017-07-03T21:28:27.177Z,19.57
2017-07-03T21:29:37.714Z,19.56
2017-07-03T21:30:47.669Z,19.53
2017-07-03T21:31:57.947Z,19.55
2017-07-03T21:33:08.230Z,19.52
2017-07-03T21:34:18.175Z,19.62
2017-07-03T21:35:28.425Z,19.56
2017-07-03T21:36:38.682Z,19.52
2017-07-03T21:37:48.621Z,19.57
2017-07-03T21:38:58.912Z,19.57
2017-07-03T21:40:09.184Z,19.6
2017-07-03T21:41:19.712Z,19.55
2017-07-03T21:42:29.673Z,19.56
2017-07-03T21:43:39.944Z,19.59
2017-07-03T21:44:50.229Z,19.59
2017-07-03T21:46:00.474Z,19.55
2017-07-03T21:47:10.728Z,19.59
2017-07-03T21:48:20.973Z,19.48
2017-07-03T21:49:30.938Z,19.56
2017-07-03T21:50:40.569Z,19.62
2017-07-03T21:51:50.530Z,19.59
2017-07-03T21:53:00.777Z,19.59
2017-07-03T21:54:11.048Z,19.55
2017-07-03T21:55:21.312Z,19.52
2017-07-03T21:56:31.266Z,19.56
2017-07-03T21:57:40.577Z,19.57
2017-07-03T21:58:50.779Z,19.6
2017-07-03T22:00:00.734Z,19.62
2017-07-03T22:01:10.988Z,19.59
2017-07-03T22:02:21.256Z,19.56
2017-07-03T22:03:30.888Z,19.59
2017-07-03T22:04:41.151Z,19.59
2017-07-03T22:05:51.424Z,19.62
2017-07-03T22:07:01.691Z,19.56
2017-07-03T22:08:11.621Z,19.52
2017-07-03T22:09:21.576Z,19.53
2017-07-03T22:10:31.767Z,19.52
2017-07-03T22:11:41.752Z,19.57
2017-07-03T22:12:51.714Z,19.59
2017-07-03T22:14:01.646Z,19.55
2017-07-03T22:15:11.615Z,19.59
2017-07-03T22:16:21.808Z,19.56
2017-07-03T22:17:31.744Z,19.48
2017-07-03T22:18:41.707Z,19.55
2017-07-03T22:19:51.672Z,19.57
2017-07-03T22:21:01.919Z,19.55
2017-07-03T22:22:12.160Z,19.57
2017-07-03T22:23:22.429Z,19.53
2017-07-03T22:24:32.776Z,19.57
2017-07-03T22:25:43.043Z,19.57
2017-07-03T22:26:53.001Z,19.55
2017-07-03T22:28:03.519Z,19.53
2017-07-03T22:29:13.461Z,19.56
2017-07-03T22:30:23.717Z,19.59
2017-07-03T22:31:33.046Z,19.57
2017-07-03T22:32:43.022Z,19.49
2017-07-03T22:33:53.546Z,19.56
2017-07-03T22:35:03.812Z,19.53
2017-07-03T22:36:14.096Z,19.52
2017-07-03T22:37:23.735Z,19.55
2017-07-03T22:38:33.715Z,19.53
2017-07-03T22:39:43.913Z,19.49
2017-07-03T22:40:53.868Z,19.59
2017-07-03T22:42:04.131Z,19.52
2017-07-03T22:43:14.083Z,19.49
2017-07-03T22:44:24.038Z,19.49
2017-07-03T22:45:34.607Z,19.48
2017-07-03T22:46:44.889Z,19.48
2017-07-03T22:47:55.156Z,19.49
2017-07-03T22:49:05.140Z,19.41
2017-07-03T22:50:15.394Z,19.48
2017-07-03T22:51:25.964Z,19.41
2017-07-03T22:52:36.269Z,19.52
2017-07-03T22:53:46.572Z,19.45
2017-07-03T22:54:56.828Z,19.52
2017-07-03T22:56:06.475Z,19.49
2017-07-03T22:57:17.050Z,19.49
2017-07-03T22:58:26.998Z,19.49
2017-07-03T22:59:36.955Z,19.44
2017-07-03T23:00:46.918Z,19.56
2017-07-03T23:01:57.183Z,19.44
2017-07-03T23:03:07.380Z,19.42
2017-07-03T23:04:17.337Z,19.47